EGAA/BFS METAR and TAF weather

Enter ICAO airport designator
Station Type Date Time Source
EGAA METAR 2019/12/07 09:50 UTC NOAA

EGAA 070950Z 17007KT 140V200 9999 BKN008 08/07 Q1006


Station Type Date Time Source
EGAA Decoded METAR 2019/12/07 09:50 UTC NOAA

Belfast / Aldergrove Airport, United Kingdom (EGAA) 54-39N 006-13W 0M
Dec 07, 2019 - 04:50 AM EST / 2019.12.07 0950 UTC
Wind: from the S (170 degrees) at 8 MPH (7 KT) (direction variable):0
Visibility: greater than 7 mile(s):0
Sky conditions: mostly cloudy
Temperature: 46 F (8 C)
Dew Point: 44 F (7 C)
Relative Humidity: 93%
Pressure (altimeter): 29.71 in. Hg (1006 hPa)
ob: EGAA 070950Z 17007KT 140V200 9999 BKN008 08/07 Q1006
cycle: 10

Station Type Date Time Source
EGAA TAF 2019/12/07 06:06 UTC NOAA

TAF TAF EGAA 070457Z 0706/0806 22010KT 9999 FEW003 BKN015
BECMG 0706/0708 BKN012
TEMPO 0706/0710 6000 -RADZ BKN004
BECMG 0710/0714 21015G25KT
TEMPO 0710/0714 4000 RADZ BKN003 PROB40 0715/0720 SCT014
BECMG 0720/0722 22025G35KT
TEMPO 0720/0722 7000 RA BKN009
BECMG 0723/0801 26020G30KT FEW009 SCT015 PROB30
TEMPO 0801/0806 27025G40KT 7000 SHRA

Example: see airport list